Latest Weather Observations for Kingscote

IDS60801

Issued at 6:01 pm CST Wednesday 24 August 2016 (issued every 30 minutes, with the page automatically refreshed every 10 minutes)

About weather observations | Map of weather stations | Latest weather observations for SA | Other Formats
Station Details ID: 022841 Name: KINGSCOTE AERO Lat: -35.71 Lon: 137.52 Height: 6.23 m
Data from the previous 72 hours. | See also: Recent months at Kingscote
Date/Time
CST
Temp
°C
App
Temp
°C
Dew
Point
°C
Rel
Hum
%
Delta-T
°C
Wind Press
QNH
hPa
Press
MSL
hPa
Rain since
9am
mm
Dir  Spd
km/h
Gust
km/h
Spd
kts
Gust
kts
24/06:00pm 9.8 6.9 6.3 79 1.6 SSE 11 15 6 8 1016.4 1016.4 0.0
24/05:30pm 10.8 7.6 6.7 76 1.9 SE 13 15 7 8 1016.1 1016.1 0.0
24/05:00pm 11.9 9.2 7.4 74 2.2 SSE 11 15 6 8 1015.9 1015.9 0.0
24/04:30pm 12.7 9.8 8.0 73 2.3 E 13 20 7 11 1015.6 1015.6 0.0
24/04:00pm 12.9 9.7 8.6 75 2.1 ENE 15 20 8 11 1015.3 1015.3 0.0
24/03:30pm 13.3 10.1 8.6 73 2.3 E 15 20 8 11 1015.3 1015.3 0.0
24/03:00pm 13.8 10.6 8.4 70 2.7 ESE 15 24 8 13 1015.1 1015.1 0.0
24/02:30pm 13.6 9.5 6.2 61 3.5 SE 17 26 9 14 1015.1 1015.1 0.0
24/02:00pm 13.6 9.3 8.0 69 2.8 SSE 20 28 11 15 1015.2 1015.2 0.0
24/01:30pm 15.4 11.3 6.4 55 4.4 E 17 24 9 13 1015.3 1015.3 0.0
24/01:00pm 15.4 11.6 7.7 60 3.8 ENE 17 22 9 12 1015.5 1015.5 0.0
24/12:30pm 14.7 10.7 6.8 59 3.8 NE 17 24 9 13 1015.8 1015.8 0.0
24/12:00pm 15.1 11.6 8.8 66 3.2 ENE 17 22 9 12 1016.1 1016.1 0.0
24/11:30am 14.7 11.6 8.9 68 2.9 E 15 22 8 12 1016.3 1016.3 0.0
24/11:00am 14.5 11.1 9.1 70 2.8 ENE 17 20 9 11 1016.3 1016.3 0.0
24/10:30am 13.8 9.9 8.8 72 2.5 E 19 24 10 13 1016.2 1016.2 0.0
24/10:00am 13.0 9.0 8.3 73 2.3 E 19 22 10 12 1016.3 1016.3 0.0
24/09:30am 12.0 9.1 9.6 85 1.2 E 15 20 8 11 1016.5 1016.5 0.0
24/09:00am 9.5 9.3 9.2 98 0.1 CALM 0 0 0 0 1016.6 1016.6 0.0
24/08:30am 6.2 5.3 5.9 98 0.1 CALM 0 0 0 0 1016.6 1016.6 0.0
24/08:00am 3.4 1.9 3.0 97 0.2 CALM 0 0 0 0 1016.6 1016.6 0.0
24/07:30am 2.4 -0.6 2.1 98 0.1 WSW 7 9 4 5 1016.5 1016.5 0.0
24/07:00am 2.3 -0.7 2.0 98 0.1 NW 7 9 4 5 1016.3 1016.3 0.0
24/06:30am 2.1 -0.8 1.7 97 0.2 WNW 6 7 3 4 1016.1 1016.1 0.0
24/06:00am 2.2 -0.6 1.8 97 0.2 WNW 6 7 3 4 1015.9 1015.9 0.0
24/05:30am 2.6 -0.2 2.2 97 0.2 W 6 7 3 4 1015.8 1015.8 0.0
24/05:00am 2.6 -0.2 2.2 97 0.2 W 6 7 3 4 1015.9 1015.9 0.0
24/04:30am 2.7 -0.3 2.3 97 0.2 W 7 7 4 4 1015.9 1015.9 0.0
24/04:00am 3.2 0.3 2.8 97 0.2 W 7 9 4 5 1015.7 1015.7 0.0
24/03:30am 2.7 -0.3 2.3 97 0.2 W 7 9 4 5 1015.8 1015.8 0.0
24/03:00am 3.1 0.2 2.5 96 0.2 W 7 9 4 5 1015.8 1015.8 0.0
24/02:30am 3.8 1.0 3.4 97 0.2 W 7 7 4 4 1016.1 1016.1 0.0
24/02:00am 3.6 0.8 3.0 96 0.2 WSW 7 9 4 5 1016.2 1016.2 0.0
24/01:30am 3.5 0.7 2.9 96 0.2 WSW 7 9 4 5 1016.4 1016.4 0.0
24/01:00am 3.9 1.3 3.3 96 0.2 WSW 6 7 3 4 1016.4 1016.4 0.0
24/12:30am 4.5 1.5 3.9 96 0.2 WNW 9 11 5 6 1016.6 1016.6 0.0
24/12:00am 4.9 2.5 4.3 96 0.3 NNW 6 7 3 4 1016.6 1016.6 0.0
 
Date/Time
CST
Temp
°C
App
Temp
°C
Dew
Point
°C
Rel
Hum
%
Delta-T
°C
Wind Press
QNH
hPa
Press
MSL
hPa
Rain since
9am
mm
Dir  Spd
km/h
Gust
km/h
Spd
kts
Gust
kts
23/11:30pm 4.7 2.1 4.0 95 0.3 W 7 9 4 5 1016.8 1016.8 0.0
23/11:00pm 5.3 3.0 4.7 96 0.3 WSW 6 9 3 5 1016.9 1016.9 0.0
23/10:30pm 5.1 2.5 4.4 95 0.3 SW 7 9 4 5 1017.0 1017.0 0.0
23/10:00pm 5.1 2.5 4.2 94 0.4 SSW 7 7 4 4 1017.1 1017.1 0.0
23/09:30pm 6.2 4.0 5.3 94 0.4 SSW 6 6 3 3 1017.2 1017.2 0.0
23/09:00pm 6.3 4.1 5.3 93 0.4 SSW 6 7 3 4 1017.0 1017.0 0.0
23/08:30pm 7.5 5.9 6.4 93 0.5 SSW 4 7 2 4 1017.0 1017.0 0.0
23/08:00pm 7.7 5.6 6.5 92 0.5 S 7 9 4 5 1016.9 1016.9 0.0
23/07:30pm 8.9 7.1 7.2 89 0.8 SE 6 7 3 4 1016.7 1016.7 0.0
23/07:00pm 9.4 7.1 7.3 87 1.0 ESE 9 11 5 6 1016.4 1016.4 0.0
23/06:30pm 10.3 7.0 7.9 85 1.2 SE 15 17 8 9 1016.3 1016.3 0.0
23/06:00pm 10.7 7.7 7.9 83 1.4 SE 13 17 7 9 1016.3 1016.3 0.0
23/05:30pm 11.7 8.9 8.4 80 1.6 SE 13 15 7 8 1016.3 1016.3 0.0
23/05:00pm 12.5 10.0 8.2 75 2.1 E 11 15 6 8 1016.3 1016.3 0.0
23/04:30pm 12.9 10.1 8.6 75 2.1 ENE 13 15 7 8 1016.2 1016.2 0.0
23/04:00pm 12.8 9.9 8.3 74 2.2 E 13 19 7 10 1016.1 1016.1 0.0
23/03:30pm 14.0 10.5 8.6 70 2.7 ESE 17 22 9 12 1016.0 1016.0 0.0
23/03:00pm 14.0 11.1 8.0 67 3.0 E 13 20 7 11 1015.9 1015.9 0.0
23/02:30pm 15.0 12.3 8.9 67 3.1 ENE 13 20 7 11 1016.0 1016.0 0.0
23/02:00pm 14.2 10.9 7.9 66 3.1 NE 15 20 8 11 1016.1 1016.1 0.0
23/01:30pm 14.6 11.5 8.8 68 2.9 ENE 15 22 8 12 1016.2 1016.2 0.0
23/01:00pm 14.1 10.3 9.1 72 2.5 ENE 19 24 10 13 1016.4 1016.4 0.0
23/12:30pm 14.0 10.0 8.2 68 2.9 ENE 19 24 10 13 1016.7 1016.7 0.0
23/12:00pm 14.4 10.6 9.8 74 2.4 ENE 20 28 11 15 1016.9 1016.9 0.0
23/11:30am 14.6 11.3 9.6 72 2.6 ENE 17 22 9 12 1017.3 1017.3 0.0
23/11:00am 14.1 10.7 9.3 73 2.4 ENE 17 24 9 13 1017.5 1017.5 0.0
23/10:30am 13.8 10.9 9.5 75 2.2 ENE 15 20 8 11 1017.7 1017.7 0.0
23/10:00am 12.1 9.6 9.8 86 1.2 E 13 19 7 10 1017.8 1017.8 0.0
23/09:30am 11.8 12.0 10.7 93 0.6 CALM 0 0 0 0 1017.7 1017.7 0.0
23/09:00am 9.4 9.2 8.9 97 0.2 CALM 0 0 0 0 1017.7 1017.7 5.6
23/08:30am 7.5 6.9 7.2 98 0.1 CALM 0 0 0 0 1017.4 1017.4 5.6
23/08:00am 6.2 5.3 5.9 98 0.1 CALM 0 0 0 0 1017.1 1017.1 5.6
23/07:30am 4.0 2.6 3.7 98 0.1 CALM 0 0 0 0 1016.9 1016.9 5.6
23/07:00am 2.7 1.1 2.3 97 0.2 CALM 0 0 0 0 1016.9 1016.9 5.6
23/06:30am 2.9 1.3 2.5 97 0.2 CALM 0 0 0 0 1016.8 1016.8 5.6
23/06:00am 3.1 1.5 2.7 97 0.2 CALM 0 0 0 0 1016.6 1016.6 5.6
23/05:35am 2.9 1.3 2.5 97 0.2 CALM 0 0 0 0 1016.5 1016.5 5.6
23/05:30am 2.7 1.1 2.3 97 0.2 CALM 0 0 0 0 1016.5 1016.5 5.6
23/05:19am 2.7 1.1 2.3 97 0.2 CALM 0 0 0 0 1016.5 1016.5 5.6
23/05:00am 3.0 1.4 2.6 97 0.2 CALM 0 0 0 0 1016.6 1016.6 5.6
23/04:30am 3.5 2.0 3.1 97 0.2 CALM 0 0 0 0 1016.4 1016.4 5.6
23/04:00am 3.1 1.5 2.7 97 0.2 CALM 0 0 0 0 1016.3 1016.3 5.6
23/03:44am 3.4 1.9 3.0 97 0.2 CALM 0 0 0 0 1016.3 1016.3 5.6
23/03:30am 3.6 2.1 3.2 97 0.2 CALM 0 0 0 0 1016.3 1016.3 5.6
23/03:23am 3.3 1.8 2.9 97 0.2 CALM 0 0 0 0 1016.3 1016.3 5.6
23/03:22am 3.4 1.9 3.0 97 0.2 CALM 0 0 0 0 1016.3 1016.3 5.6
23/03:03am 3.6 2.1 3.2 97 0.2 CALM 0 0 0 0 1016.4 1016.4 5.6
23/03:00am 3.7 2.3 3.3 97 0.2 CALM 0 0 0 0 1016.4 1016.4 5.6
23/02:36am 4.0 2.6 3.6 97 0.2 CALM 0 0 0 0 1016.4 1016.4 5.6
23/02:30am 3.9 2.5 3.5 97 0.2 CALM 0 0 0 0 1016.4 1016.4 5.6
23/02:23am 3.9 2.5 3.5 97 0.2 CALM 0 0 0 0 1016.4 1016.4 5.6
23/02:00am 4.2 2.8 3.8 97 0.2 CALM 0 0 0 0 1016.4 1016.4 5.6
23/01:30am 4.4 3.1 4.0 97 0.2 CALM 0 0 0 0 1016.3 1016.3 5.6
23/01:00am 4.2 2.8 3.6 96 0.2 CALM 0 0 0 0 1016.4 1016.4 5.6
23/12:37am 4.9 3.7 4.5 97 0.2 CALM 0 0 0 0 1016.3 1016.3 5.6
23/12:30am 4.7 3.4 4.3 97 0.2 CALM 0 0 0 0 1016.4 1016.4 5.6
23/12:00am 4.7 3.4 4.1 96 0.3 CALM 0 0 0 0 1016.4 1016.4 5.6
 
Date/Time
CST
Temp
°C
App
Temp
°C
Dew
Point
°C
Rel
Hum
%
Delta-T
°C
Wind Press
QNH
hPa
Press
MSL
hPa
Rain since
9am
mm
Dir  Spd
km/h
Gust
km/h
Spd
kts
Gust
kts
22/11:30pm 5.2 4.0 4.6 96 0.3 CALM 0 0 0 0 1016.4 1016.4 5.6
22/11:11pm 5.9 4.9 5.5 97 0.2 CALM 0 0 0 0 1016.4 1016.4 5.6
22/11:08pm 5.9 4.9 5.5 97 0.2 CALM 0 0 0 0 1016.4 1016.4 5.6
22/11:00pm 5.6 4.5 5.0 96 0.3 CALM 0 0 0 0 1016.5 1016.5 5.6
22/10:30pm 5.7 4.6 5.1 96 0.3 CALM 0 0 0 0 1016.6 1016.6 5.6
22/10:00pm 6.2 5.2 5.5 95 0.3 CALM 0 0 0 0 1016.7 1016.7 5.6
22/09:57pm 6.4 5.4 5.8 96 0.3 CALM 0 0 0 0 1016.7 1016.7 5.6
22/09:30pm 6.7 5.8 6.1 96 0.3 CALM 0 0 0 0 1016.7 1016.7 5.6
22/09:00pm 6.7 5.8 6.0 95 0.3 CALM 0 0 0 0 1016.5 1016.5 5.6
22/08:30pm 6.9 6.0 6.2 95 0.3 CALM 0 0 0 0 1016.3 1016.3 5.6
22/08:00pm 7.7 7.0 6.8 94 0.4 CALM 0 0 0 0 1016.1 1016.1 5.6
22/07:30pm 7.7 6.9 6.6 93 0.5 CALM 0 0 0 0 1015.7 1015.7 5.6
22/07:00pm 9.0 8.4 7.6 91 0.7 CALM 0 0 0 0 1015.4 1015.4 5.6
22/06:30pm 9.5 9.0 7.8 89 0.8 CALM 0 0 0 0 1015.2 1015.2 5.6
22/06:00pm 10.3 8.7 8.1 86 1.1 SSW 6 7 3 4 1014.8 1014.8 5.6
22/05:30pm 11.5 9.9 8.9 84 1.3 SW 7 9 4 5 1014.6 1014.6 5.6
22/05:00pm 12.3 10.3 8.8 79 1.7 SW 9 15 5 8 1014.4 1014.4 5.6
22/04:30pm 13.2 11.8 9.5 78 1.9 WSW 7 11 4 6 1014.3 1014.3 5.6
22/04:00pm 12.7 10.5 9.2 79 1.8 WNW 11 15 6 8 1014.1 1014.1 5.6
22/03:30pm 13.3 11.4 7.7 69 2.7 SSW 7 9 4 5 1013.8 1013.8 5.6
22/03:00pm 13.5 11.2 7.5 67 2.9 S 9 13 5 7 1013.7 1013.7 5.6
22/02:30pm 13.7 11.6 8.1 69 2.8 SSE 9 13 5 7 1013.5 1013.5 5.6
22/02:00pm 13.6 10.8 8.4 71 2.6 SSE 13 15 7 8 1013.6 1013.6 5.6
22/01:30pm 13.8 12.5 10.0 78 2.0 SSE 7 11 4 6 1013.8 1013.8 5.6
22/01:00pm 12.3 12.2 9.5 83 1.4 CALM 0 4 0 2 1014.0 1014.0 5.6
22/12:30pm 11.6 9.8 9.3 86 1.2 W 9 17 5 9 1014.4 1014.4 5.2
22/12:23pm 11.5 8.9 9.2 86 1.2 WNW 13 17 7 9 1014.3 1014.3 5.2
22/12:00pm 12.0 9.3 9.0 82 1.5 NNW 13 22 7 12 1014.5 1014.5 3.2
22/11:57am 12.0 8.8 8.5 79 1.7 N 15 22 8 12 1014.5 1014.5 2.4
22/11:30am 13.7 11.6 8.1 69 2.8 S 9 13 5 7 1014.4 1014.4 0.2
22/11:00am 14.2 11.9 7.3 63 3.4 S 9 15 5 8 1014.5 1014.5 0.0
22/10:30am 14.6 13.2 9.0 69 2.8 WSW 6 15 3 8 1014.6 1014.6 0.0
22/10:00am 12.9 12.7 9.0 77 2.0 CALM 0 0 0 0 1014.5 1014.5 0.0
22/09:30am 11.5 11.4 9.6 88 1.0 CALM 0 0 0 0 1014.4 1014.4 0.0
22/09:00am 10.2 10.0 9.1 93 0.5 CALM 0 0 0 0 1014.2 1014.2 1.4
22/08:30am 9.1 8.8 8.5 96 0.3 CALM 0 0 0 0 1014.2 1014.2 1.4
22/08:00am 7.3 6.6 6.9 97 0.2 CALM 0 0 0 0 1013.9 1013.9 1.4
22/07:30am 5.4 3.1 5.0 97 0.2 W 6 7 3 4 1013.7 1013.7 1.4
22/07:00am 5.2 4.0 4.8 97 0.2 CALM 0 0 0 0 1013.3 1013.3 1.4
22/06:30am 5.3 4.2 4.9 97 0.2 CALM 0 0 0 0 1013.3 1013.3 1.4
22/06:00am 4.2 2.8 3.6 96 0.2 CALM 0 0 0 0 1013.0 1013.0 1.4
22/05:30am 4.5 3.2 3.9 96 0.3 CALM 0 0 0 0 1012.9 1012.9 1.4
22/05:00am 5.0 3.8 4.6 97 0.2 CALM 0 0 0 0 1013.0 1013.0 1.4
22/04:30am 4.6 3.3 4.0 96 0.3 CALM 0 0 0 0 1013.0 1013.0 1.4
22/04:00am 4.4 3.0 3.8 96 0.2 CALM 0 0 0 0 1012.9 1012.9 1.4
22/03:30am 3.7 2.2 3.0 95 0.3 CALM 0 0 0 0 1013.1 1013.1 1.4
22/03:00am 4.4 3.0 3.7 95 0.3 CALM 0 0 0 0 1013.1 1013.1 1.4
22/02:30am 5.5 4.4 4.9 96 0.3 CALM 0 0 0 0 1013.1 1013.1 1.2
22/02:00am 5.3 4.1 4.4 94 0.4 CALM 0 0 0 0 1013.0 1013.0 1.2
22/01:30am 5.7 4.5 4.8 94 0.4 CALM 0 0 0 0 1013.3 1013.3 1.2
22/01:00am 6.2 5.1 5.2 93 0.4 CALM 0 0 0 0 1013.2 1013.2 1.2
22/12:30am 6.7 4.5 5.5 92 0.5 W 6 7 3 4 1013.3 1013.3 1.2
22/12:00am 7.2 4.9 5.8 91 0.6 NW 7 9 4 5 1013.5 1013.5 1.2
 
Date/Time
CST
Temp
°C
App
Temp
°C
Dew
Point
°C
Rel
Hum
%
Delta-T
°C
Wind Press
QNH
hPa
Press
MSL
hPa
Rain since
9am
mm
Dir  Spd
km/h
Gust
km/h
Spd
kts
Gust
kts
21/11:30pm 7.9 5.8 6.7 92 0.6 SW 7 9 4 5 1013.7 1013.7 1.2
21/11:00pm 8.4 6.5 6.9 90 0.7 W 6 7 3 4 1013.9 1013.9 1.2
21/10:30pm 8.7 6.3 6.8 88 0.9 NW 9 11 5 6 1014.0 1014.0 1.2
21/10:00pm 9.0 6.3 7.3 89 0.8 NNW 11 13 6 7 1014.0 1014.0 1.2
21/09:30pm 8.5 7.8 7.1 91 0.7 CALM 0 0 0 0 1014.0 1014.0 1.2
21/09:00pm 8.4 7.7 6.9 90 0.7 CALM 0 0 0 0 1014.1 1014.1 1.2
21/08:30pm 8.8 8.2 7.4 91 0.7 CALM 0 0 0 0 1014.1 1014.1 1.2
21/08:00pm 9.2 8.7 7.8 91 0.7 CALM 0 0 0 0 1014.0 1014.0 1.2
21/07:30pm 9.3 7.4 7.7 90 0.8 W 7 9 4 5 1013.8 1013.8 1.2
21/07:00pm 9.8 7.3 8.1 89 0.8 WNW 11 11 6 6 1013.7 1013.7 1.2
21/06:30pm 10.6 6.9 8.0 84 1.3 W 17 22 9 12 1013.6 1013.6 1.2

Other Formats:

Comma delimited format used in spreadsheet applications
http://www.bom.gov.au/fwo/IDS60801/IDS60801.95807.axf

JavaScript Object Notation format (JSON) in row-major order
http://www.bom.gov.au/fwo/IDS60801/IDS60801.95807.json